TAI520 MSLP-KLAX
Flight info
| Callsign | TAI520 |
|---|---|
| Flight time | 4h 46m |
| Altitude | 34000 |
| Route | OLISU4A OLISU UG436 AUR DCT ASOKU UL655 LEXUX/N0455F360 UL655 PPE J93 AXASA DCT ASUTA DCT AMMOR OLAAA2 |
| Aircraft | A320/M-SDE3FGHIRWY/LB1 |
Departure
| Time | 2026-04-15 16:52 |
|---|---|
| Airport | El Salvador International Airport Saint Óscar Arnulfo Romero y Galdámez (MSLP) |
Arrival
| Time | 2026-04-15 21:39 |
|---|---|
| Airport | Los Angeles International Airport (KLAX) |
| Time | Latitude | Longitude | Altitude | Speed | Heading |
|---|---|---|---|---|---|
| 2026-04-15 16:29 | 13.44337 | -89.05905 | 90 ft | 0 kts | 341° |
| 2026-04-15 16:44 | 13.44325 | -89.05901 | 93 ft | 4 kts | 340° |
| 2026-04-15 16:44 | 13.44305 | -89.05888 | 92 ft | 4 kts | 298° |
| 2026-04-15 16:45 | 13.44300 | -89.05864 | 91 ft | 3 kts | 260° |
| 2026-04-15 16:45 | 13.44301 | -89.05857 | 91 ft | 0 kts | 259° |
| 2026-04-15 16:48 | 13.44291 | -89.05880 | 93 ft | 8 kts | 228° |
| 2026-04-15 16:48 | 13.44248 | -89.05901 | 92 ft | 5 kts | 211° |
| 2026-04-15 16:48 | 13.44216 | -89.05916 | 91 ft | 7 kts | 192° |
| 2026-04-15 16:48 | 13.44153 | -89.05946 | 89 ft | 14 kts | 224° |
| 2026-04-15 16:49 | 13.44106 | -89.06059 | 91 ft | 20 kts | 249° |
| 2026-04-15 16:49 | 13.44060 | -89.06196 | 90 ft | 21 kts | 250° |
| 2026-04-15 16:49 | 13.44009 | -89.06340 | 87 ft | 22 kts | 250° |
| 2026-04-15 16:49 | 13.43954 | -89.06493 | 88 ft | 23 kts | 249° |
| 2026-04-15 16:50 | 13.43897 | -89.06653 | 82 ft | 24 kts | 250° |
| 2026-04-15 16:50 | 13.43837 | -89.06821 | 81 ft | 26 kts | 250° |
| 2026-04-15 16:50 | 13.43779 | -89.06980 | 69 ft | 20 kts | 241° |
| 2026-04-15 16:50 | 13.43710 | -89.06996 | 72 ft | 8 kts | 142° |
| 2026-04-15 16:51 | 13.43670 | -89.06977 | 66 ft | 6 kts | 161° |
| 2026-04-15 16:51 | 13.43617 | -89.06965 | 77 ft | 11 kts | 171° |
| 2026-04-15 16:51 | 13.43617 | -89.06906 | 74 ft | 11 kts | 68° |
| 2026-04-15 16:51 | 13.43651 | -89.06811 | 82 ft | 23 kts | 70° |
| 2026-04-15 16:52 | 13.43791 | -89.06421 | 86 ft | 95 kts | 70° |
| 2026-04-15 16:52 | 13.44100 | -89.05564 | 94 ft | 157 kts | 69° |
| 2026-04-15 16:52 | 13.44509 | -89.04414 | 493 ft | 176 kts | 70° |
| 2026-04-15 16:52 | 13.44932 | -89.03233 | 1288 ft | 176 kts | 69° |
| 2026-04-15 16:53 | 13.45369 | -89.02048 | 1808 ft | 183 kts | 69° |
| 2026-04-15 16:53 | 13.45847 | -89.00754 | 2007 ft | 205 kts | 69° |
| 2026-04-15 16:53 | 13.46382 | -88.99302 | 2222 ft | 230 kts | 69° |
| 2026-04-15 16:53 | 13.46852 | -88.98025 | 2459 ft | 249 kts | 69° |
| 2026-04-15 16:54 | 13.47352 | -88.96271 | 2957 ft | 262 kts | 85° |
| 2026-04-15 16:54 | 13.47129 | -88.94416 | 3662 ft | 266 kts | 111° |
| 2026-04-15 16:54 | 13.46147 | -88.92822 | 4400 ft | 268 kts | 136° |
| 2026-04-15 16:54 | 13.44579 | -88.91793 | 5136 ft | 270 kts | 162° |
| 2026-04-15 16:55 | 13.42724 | -88.91552 | 5869 ft | 272 kts | 187° |
| 2026-04-15 16:55 | 13.40937 | -88.92171 | 6564 ft | 274 kts | 213° |
| 2026-04-15 16:55 | 13.39589 | -88.93540 | 7251 ft | 276 kts | 239° |
| 2026-04-15 16:55 | 13.38953 | -88.95393 | 7938 ft | 279 kts | 265° |
| 2026-04-15 16:56 | 13.39176 | -88.97361 | 8606 ft | 281 kts | 289° |
| 2026-04-15 16:56 | 13.39879 | -88.99247 | 9283 ft | 284 kts | 291° |
| 2026-04-15 16:56 | 13.40604 | -89.01145 | 9950 ft | 287 kts | 291° |
| 2026-04-15 16:56 | 13.41342 | -89.03084 | 10363 ft | 301 kts | 291° |
| 2026-04-15 16:57 | 13.42131 | -89.05159 | 10498 ft | 323 kts | 291° |
| 2026-04-15 16:57 | 13.42686 | -89.06608 | 10644 ft | 334 kts | 293° |
| 2026-04-15 16:57 | 13.44269 | -89.09358 | 11340 ft | 342 kts | 308° |
| 2026-04-15 16:57 | 13.45778 | -89.11267 | 11943 ft | 345 kts | 309° |
| 2026-04-15 16:58 | 13.47299 | -89.13194 | 12545 ft | 348 kts | 309° |
| 2026-04-15 16:58 | 13.48832 | -89.15139 | 13115 ft | 352 kts | 309° |
| 2026-04-15 16:58 | 13.50379 | -89.17095 | 13676 ft | 355 kts | 309° |
| 2026-04-15 16:58 | 13.51432 | -89.18424 | 14048 ft | 356 kts | 309° |
| 2026-04-15 16:59 | 13.53521 | -89.21060 | 14750 ft | 361 kts | 309° |
| 2026-04-15 16:59 | 13.54597 | -89.22419 | 15109 ft | 363 kts | 309° |
| 2026-04-15 16:59 | 13.56174 | -89.24415 | 15627 ft | 366 kts | 309° |
| 2026-04-15 16:59 | 13.57788 | -89.26457 | 16122 ft | 370 kts | 309° |
| 2026-04-15 17:00 | 13.59417 | -89.28517 | 16617 ft | 373 kts | 309° |
| 2026-04-15 17:00 | 13.61058 | -89.30588 | 17099 ft | 376 kts | 309° |
| 2026-04-15 17:00 | 13.62716 | -89.32679 | 17571 ft | 379 kts | 309° |
| 2026-04-15 17:00 | 13.64389 | -89.34790 | 18034 ft | 382 kts | 309° |
| 2026-04-15 17:01 | 13.66072 | -89.36914 | 18476 ft | 385 kts | 309° |
| 2026-04-15 17:01 | 13.67772 | -89.39064 | 18910 ft | 388 kts | 309° |
| 2026-04-15 17:01 | 13.69471 | -89.41219 | 19380 ft | 389 kts | 309° |
| 2026-04-15 17:01 | 13.71181 | -89.43390 | 19829 ft | 391 kts | 309° |
| 2026-04-15 17:02 | 13.72899 | -89.45573 | 20256 ft | 394 kts | 309° |
| 2026-04-15 17:02 | 13.74628 | -89.47766 | 20649 ft | 396 kts | 309° |
| 2026-04-15 17:02 | 13.76371 | -89.49975 | 21059 ft | 398 kts | 309° |
| 2026-04-15 17:02 | 13.78124 | -89.52196 | 21451 ft | 401 kts | 309° |
| 2026-04-15 17:03 | 13.79883 | -89.54429 | 21821 ft | 404 kts | 309° |
| 2026-04-15 17:03 | 13.81660 | -89.56682 | 22175 ft | 406 kts | 309° |
| 2026-04-15 17:03 | 13.83448 | -89.58947 | 22500 ft | 410 kts | 309° |
| 2026-04-15 17:03 | 13.85250 | -89.61230 | 22835 ft | 413 kts | 309° |
| 2026-04-15 17:04 | 13.87068 | -89.63540 | 23067 ft | 417 kts | 309° |
| 2026-04-15 17:04 | 13.88896 | -89.65866 | 23403 ft | 419 kts | 309° |
| 2026-04-15 17:04 | 13.90736 | -89.68208 | 23759 ft | 421 kts | 309° |
| 2026-04-15 17:04 | 13.92579 | -89.70555 | 24107 ft | 423 kts | 309° |
| 2026-04-15 17:05 | 13.94428 | -89.72908 | 24501 ft | 423 kts | 309° |
| 2026-04-15 17:05 | 13.96283 | -89.75269 | 24844 ft | 424 kts | 309° |
| 2026-04-15 17:05 | 13.98137 | -89.77628 | 25180 ft | 425 kts | 309° |
| 2026-04-15 17:05 | 14.00000 | -89.79996 | 25494 ft | 426 kts | 309° |
| 2026-04-15 17:06 | 14.01869 | -89.82372 | 25784 ft | 428 kts | 309° |
| 2026-04-15 17:06 | 14.03749 | -89.84760 | 26074 ft | 430 kts | 309° |
| 2026-04-15 17:06 | 14.05637 | -89.87155 | 26363 ft | 431 kts | 309° |
| 2026-04-15 17:06 | 14.07525 | -89.89562 | 26638 ft | 433 kts | 308° |
| 2026-04-15 17:07 | 14.09419 | -89.91989 | 26877 ft | 436 kts | 308° |
| 2026-04-15 17:07 | 14.11327 | -89.94434 | 27071 ft | 440 kts | 308° |
| 2026-04-15 17:07 | 14.13250 | -89.96897 | 27335 ft | 441 kts | 308° |
| 2026-04-15 17:07 | 14.15175 | -89.99360 | 27626 ft | 442 kts | 308° |
| 2026-04-15 17:08 | 14.17107 | -90.01834 | 27874 ft | 444 kts | 308° |
| 2026-04-15 17:08 | 14.19049 | -90.04323 | 28109 ft | 447 kts | 308° |
| 2026-04-15 17:08 | 14.21002 | -90.06826 | 28337 ft | 449 kts | 308° |
| 2026-04-15 17:08 | 14.22960 | -90.09337 | 28558 ft | 451 kts | 308° |
| 2026-04-15 17:09 | 14.24904 | -90.11829 | 28770 ft | 453 kts | 308° |
| 2026-04-15 17:09 | 14.26881 | -90.14362 | 28994 ft | 454 kts | 308° |
| 2026-04-15 17:09 | 14.28865 | -90.16905 | 29183 ft | 456 kts | 308° |
| 2026-04-15 17:09 | 14.30854 | -90.19455 | 29427 ft | 457 kts | 308° |
| 2026-04-15 17:10 | 14.32849 | -90.22014 | 29584 ft | 460 kts | 308° |
| 2026-04-15 17:10 | 14.34858 | -90.24591 | 29793 ft | 461 kts | 308° |
| 2026-04-15 17:10 | 14.36869 | -90.27170 | 30027 ft | 461 kts | 308° |
| 2026-04-15 17:10 | 14.38871 | -90.29742 | 30393 ft | 458 kts | 308° |
| 2026-04-15 17:11 | 14.40862 | -90.32303 | 30703 ft | 457 kts | 308° |
| 2026-04-15 17:11 | 14.42851 | -90.34863 | 30971 ft | 456 kts | 308° |
| 2026-04-15 17:11 | 14.44836 | -90.37416 | 31217 ft | 456 kts | 308° |
| 2026-04-15 17:12 | 14.48822 | -90.42541 | 31595 ft | 459 kts | 308° |
| 2026-04-15 17:12 | 14.50819 | -90.45110 | 31819 ft | 459 kts | 308° |
| 2026-04-15 17:12 | 14.52815 | -90.47678 | 32035 ft | 459 kts | 308° |
| 2026-04-15 17:12 | 14.54817 | -90.50250 | 32280 ft | 458 kts | 309° |
| 2026-04-15 17:13 | 14.57023 | -90.52619 | 32577 ft | 457 kts | 319° |
| 2026-04-15 17:13 | 14.59553 | -90.54585 | 32833 ft | 456 kts | 328° |
| 2026-04-15 17:13 | 14.62315 | -90.56184 | 33059 ft | 456 kts | 331° |
| 2026-04-15 17:13 | 14.65110 | -90.57743 | 33276 ft | 456 kts | 331° |
| 2026-04-15 17:14 | 14.67898 | -90.59299 | 33493 ft | 456 kts | 331° |
| 2026-04-15 17:14 | 14.70684 | -90.60859 | 33703 ft | 456 kts | 331° |
| 2026-04-15 17:14 | 14.73468 | -90.62421 | 33896 ft | 456 kts | 331° |
| 2026-04-15 17:14 | 14.76256 | -90.63986 | 33990 ft | 454 kts | 331° |
| 2026-04-15 17:15 | 14.81774 | -90.67080 | 34009 ft | 449 kts | 331° |
| 2026-04-15 17:15 | 14.87251 | -90.70153 | 34010 ft | 447 kts | 331° |
| 2026-04-15 17:16 | 14.92709 | -90.73223 | 34009 ft | 446 kts | 331° |
| 2026-04-15 17:16 | 14.98176 | -90.76294 | 34009 ft | 448 kts | 331° |
| 2026-04-15 17:17 | 15.03619 | -90.79351 | 34007 ft | 449 kts | 331° |
| 2026-04-15 17:17 | 15.09114 | -90.82435 | 33994 ft | 450 kts | 331° |
| 2026-04-15 17:18 | 15.14620 | -90.85539 | 34009 ft | 450 kts | 331° |
| 2026-04-15 17:18 | 15.20110 | -90.88645 | 34024 ft | 449 kts | 331° |
| 2026-04-15 17:19 | 15.25594 | -90.91734 | 34026 ft | 448 kts | 331° |
| 2026-04-15 17:19 | 15.31066 | -90.94823 | 34016 ft | 448 kts | 331° |
| 2026-04-15 17:20 | 15.36549 | -90.97918 | 33991 ft | 450 kts | 331° |
| 2026-04-15 17:20 | 15.42063 | -91.01021 | 33988 ft | 452 kts | 331° |
| 2026-04-15 17:21 | 15.47585 | -91.04130 | 34003 ft | 452 kts | 331° |
| 2026-04-15 17:21 | 15.53102 | -91.07264 | 34000 ft | 452 kts | 331° |
| 2026-04-15 17:22 | 15.58590 | -91.10386 | 34020 ft | 452 kts | 331° |
| 2026-04-15 17:22 | 15.64108 | -91.13506 | 34019 ft | 451 kts | 331° |
| 2026-04-15 17:23 | 15.69619 | -91.16614 | 34031 ft | 450 kts | 331° |
| 2026-04-15 17:23 | 15.75114 | -91.19723 | 34040 ft | 449 kts | 331° |
| 2026-04-15 17:24 | 15.80583 | -91.22822 | 34029 ft | 447 kts | 331° |
| 2026-04-15 17:24 | 15.86041 | -91.25924 | 34021 ft | 447 kts | 331° |
| 2026-04-15 17:25 | 15.91504 | -91.29027 | 34016 ft | 447 kts | 331° |
| 2026-04-15 17:25 | 15.96968 | -91.32133 | 34008 ft | 448 kts | 331° |
| 2026-04-15 17:26 | 16.02438 | -91.35249 | 34012 ft | 448 kts | 331° |
| 2026-04-15 17:26 | 16.07651 | -91.38673 | 34023 ft | 446 kts | 319° |
| 2026-04-15 17:27 | 16.11818 | -91.43418 | 34030 ft | 444 kts | 309° |
| 2026-04-15 17:27 | 16.15752 | -91.48360 | 34026 ft | 443 kts | 309° |
| 2026-04-15 17:28 | 16.19700 | -91.53295 | 34022 ft | 443 kts | 309° |
| 2026-04-15 17:28 | 16.23640 | -91.58234 | 34014 ft | 444 kts | 309° |
| 2026-04-15 17:29 | 16.27572 | -91.63186 | 34011 ft | 444 kts | 309° |
| 2026-04-15 17:29 | 16.31512 | -91.68141 | 34005 ft | 445 kts | 309° |
| 2026-04-15 17:30 | 16.35464 | -91.73109 | 33997 ft | 446 kts | 309° |
| 2026-04-15 17:30 | 16.39422 | -91.78094 | 33987 ft | 448 kts | 309° |
| 2026-04-15 17:31 | 16.43368 | -91.83069 | 33992 ft | 449 kts | 309° |
| 2026-04-15 17:31 | 16.47349 | -91.88087 | 33988 ft | 450 kts | 309° |
| 2026-04-15 17:32 | 16.51340 | -91.93124 | 33991 ft | 451 kts | 309° |
| 2026-04-15 17:32 | 16.55337 | -91.98172 | 34004 ft | 452 kts | 309° |
| 2026-04-15 17:33 | 16.59337 | -92.03223 | 34013 ft | 451 kts | 309° |
| 2026-04-15 17:33 | 16.63332 | -92.08271 | 34021 ft | 451 kts | 309° |
| 2026-04-15 17:34 | 16.67318 | -92.13313 | 34020 ft | 450 kts | 309° |
| 2026-04-15 17:34 | 16.71298 | -92.18350 | 34021 ft | 450 kts | 309° |
| 2026-04-15 17:35 | 16.75280 | -92.23399 | 34016 ft | 450 kts | 309° |
| 2026-04-15 17:35 | 16.79260 | -92.28443 | 34017 ft | 451 kts | 309° |
| 2026-04-15 17:36 | 16.83241 | -92.33500 | 34017 ft | 451 kts | 309° |
| 2026-04-15 17:36 | 16.87221 | -92.38552 | 34023 ft | 450 kts | 309° |
| 2026-04-15 17:37 | 16.91196 | -92.43600 | 34031 ft | 450 kts | 309° |
| 2026-04-15 17:37 | 16.95162 | -92.48639 | 34029 ft | 448 kts | 309° |
| 2026-04-15 17:38 | 16.99120 | -92.53677 | 34028 ft | 448 kts | 309° |
| 2026-04-15 17:38 | 17.03065 | -92.58708 | 34030 ft | 447 kts | 309° |
| 2026-04-15 17:39 | 17.06983 | -92.63697 | 34030 ft | 446 kts | 309° |
| 2026-04-15 17:39 | 17.10918 | -92.68709 | 34035 ft | 445 kts | 309° |
| 2026-04-15 17:40 | 17.14840 | -92.73708 | 34032 ft | 444 kts | 309° |
| 2026-04-15 17:40 | 17.18746 | -92.78704 | 34032 ft | 443 kts | 309° |
| 2026-04-15 17:41 | 17.22646 | -92.83699 | 34020 ft | 443 kts | 309° |
| 2026-04-15 17:41 | 17.26552 | -92.88692 | 34004 ft | 444 kts | 309° |
| 2026-04-15 17:42 | 17.30478 | -92.93716 | 34000 ft | 446 kts | 309° |
| 2026-04-15 17:42 | 17.34398 | -92.98737 | 34018 ft | 445 kts | 309° |
| 2026-04-15 17:43 | 17.38314 | -93.03755 | 34026 ft | 444 kts | 309° |
| 2026-04-15 17:43 | 17.42214 | -93.08766 | 34025 ft | 443 kts | 309° |
| 2026-04-15 17:44 | 17.46103 | -93.13769 | 34029 ft | 442 kts | 309° |
| 2026-04-15 17:44 | 17.49986 | -93.18756 | 34027 ft | 441 kts | 309° |
| 2026-04-15 17:45 | 17.53861 | -93.23735 | 34032 ft | 441 kts | 309° |
| 2026-04-15 17:45 | 17.57700 | -93.28677 | 34028 ft | 440 kts | 309° |
| 2026-04-15 17:46 | 17.61561 | -93.33651 | 34029 ft | 439 kts | 309° |
| 2026-04-15 17:46 | 17.65415 | -93.38621 | 34025 ft | 439 kts | 309° |
| 2026-04-15 17:47 | 17.69269 | -93.43587 | 34024 ft | 439 kts | 309° |
| 2026-04-15 17:47 | 17.73123 | -93.48554 | 34020 ft | 439 kts | 309° |
| 2026-04-15 17:48 | 17.76350 | -93.52721 | 34020 ft | 439 kts | 309° |
| 2026-04-15 17:48 | 17.80194 | -93.57686 | 34019 ft | 439 kts | 309° |
| 2026-04-15 17:49 | 17.84013 | -93.62627 | 34017 ft | 439 kts | 309° |
| 2026-04-15 17:49 | 17.87856 | -93.67603 | 34019 ft | 439 kts | 309° |
| 2026-04-15 17:50 | 17.91695 | -93.72579 | 34017 ft | 438 kts | 309° |
| 2026-04-15 17:50 | 17.95534 | -93.77555 | 34017 ft | 438 kts | 309° |
| 2026-04-15 17:51 | 17.99368 | -93.82532 | 34019 ft | 438 kts | 309° |
| 2026-04-15 17:51 | 18.03207 | -93.87514 | 34019 ft | 438 kts | 309° |
| 2026-04-15 17:52 | 18.07038 | -93.92498 | 34019 ft | 438 kts | 309° |
| 2026-04-15 17:52 | 18.10867 | -93.97487 | 34014 ft | 438 kts | 309° |
| 2026-04-15 17:53 | 18.14697 | -94.02473 | 34017 ft | 438 kts | 309° |
| 2026-04-15 17:53 | 18.18529 | -94.07455 | 34020 ft | 438 kts | 309° |
| 2026-04-15 17:54 | 18.22360 | -94.12448 | 34017 ft | 438 kts | 308° |
| 2026-04-15 17:54 | 18.26180 | -94.17441 | 34018 ft | 438 kts | 309° |
| 2026-04-15 17:55 | 18.30013 | -94.22433 | 34019 ft | 438 kts | 309° |
| 2026-04-15 17:55 | 18.33841 | -94.27428 | 34018 ft | 438 kts | 308° |
| 2026-04-15 17:56 | 18.37658 | -94.32425 | 34018 ft | 438 kts | 308° |
| 2026-04-15 17:56 | 18.41453 | -94.37394 | 34017 ft | 438 kts | 308° |
| 2026-04-15 17:57 | 18.45276 | -94.42391 | 34019 ft | 438 kts | 308° |
| 2026-04-15 17:57 | 18.49096 | -94.47396 | 34017 ft | 438 kts | 308° |
| 2026-04-15 17:58 | 18.52911 | -94.52407 | 34021 ft | 438 kts | 308° |
| 2026-04-15 17:58 | 18.56724 | -94.57422 | 34017 ft | 438 kts | 308° |
| 2026-04-15 17:59 | 18.60538 | -94.62427 | 34016 ft | 438 kts | 308° |
| 2026-04-15 17:59 | 18.64355 | -94.67433 | 34021 ft | 438 kts | 308° |
| 2026-04-15 18:00 | 18.68170 | -94.72449 | 34016 ft | 438 kts | 308° |
| 2026-04-15 18:00 | 18.71978 | -94.77466 | 34019 ft | 438 kts | 308° |
| 2026-04-15 18:01 | 18.75788 | -94.82488 | 34014 ft | 438 kts | 308° |
| 2026-04-15 18:01 | 18.79595 | -94.87508 | 34021 ft | 438 kts | 308° |
| 2026-04-15 18:02 | 18.83373 | -94.92500 | 34014 ft | 438 kts | 308° |
| 2026-04-15 18:02 | 18.87176 | -94.97525 | 34018 ft | 438 kts | 308° |
| 2026-04-15 18:03 | 18.90981 | -95.02561 | 34019 ft | 438 kts | 308° |
| 2026-04-15 18:03 | 18.94780 | -95.07589 | 34019 ft | 438 kts | 308° |
| 2026-04-15 18:04 | 18.98585 | -95.12622 | 34019 ft | 438 kts | 308° |
| 2026-04-15 18:04 | 19.02384 | -95.17652 | 34020 ft | 438 kts | 308° |
| 2026-04-15 18:05 | 19.06178 | -95.22689 | 34022 ft | 438 kts | 308° |
| 2026-04-15 18:05 | 19.09973 | -95.27726 | 34020 ft | 438 kts | 308° |
| 2026-04-15 18:06 | 19.13766 | -95.32765 | 34018 ft | 438 kts | 308° |
| 2026-04-15 18:06 | 19.17561 | -95.37808 | 34023 ft | 438 kts | 308° |
| 2026-04-15 18:07 | 19.21349 | -95.42849 | 34020 ft | 438 kts | 308° |
| 2026-04-15 18:07 | 19.25113 | -95.47871 | 34019 ft | 438 kts | 308° |
| 2026-04-15 18:08 | 19.28897 | -95.52922 | 34020 ft | 438 kts | 308° |
| 2026-04-15 18:08 | 19.32680 | -95.57974 | 34020 ft | 438 kts | 308° |
| 2026-04-15 18:09 | 19.36467 | -95.63023 | 34020 ft | 438 kts | 308° |
| 2026-04-15 18:09 | 19.40251 | -95.68076 | 34020 ft | 438 kts | 308° |
| 2026-04-15 18:10 | 19.44030 | -95.73135 | 34016 ft | 438 kts | 308° |
| 2026-04-15 18:10 | 19.47807 | -95.78199 | 34018 ft | 438 kts | 308° |
| 2026-04-15 18:11 | 19.51585 | -95.83263 | 34021 ft | 438 kts | 308° |
| 2026-04-15 18:11 | 19.55357 | -95.88331 | 34021 ft | 438 kts | 308° |
| 2026-04-15 18:12 | 19.59130 | -95.93395 | 34018 ft | 438 kts | 308° |
| 2026-04-15 18:12 | 19.62913 | -95.98469 | 34021 ft | 438 kts | 308° |
| 2026-04-15 18:13 | 19.66690 | -96.03535 | 34024 ft | 438 kts | 308° |
| 2026-04-15 18:14 | 19.72343 | -96.11148 | 34022 ft | 438 kts | 308° |
| 2026-04-15 18:14 | 19.76108 | -96.16227 | 34017 ft | 438 kts | 308° |
| 2026-04-15 18:15 | 19.79845 | -96.21275 | 34022 ft | 438 kts | 308° |
| 2026-04-15 18:15 | 19.83610 | -96.26352 | 34026 ft | 438 kts | 308° |
| 2026-04-15 18:16 | 19.87378 | -96.31430 | 34016 ft | 438 kts | 308° |
| 2026-04-15 18:16 | 19.91139 | -96.36515 | 34021 ft | 438 kts | 308° |
| 2026-04-15 18:17 | 19.94898 | -96.41605 | 34019 ft | 438 kts | 308° |
| 2026-04-15 18:17 | 19.98656 | -96.46700 | 34019 ft | 438 kts | 308° |
| 2026-04-15 18:18 | 20.02414 | -96.51793 | 34021 ft | 438 kts | 308° |
| 2026-04-15 18:18 | 20.06167 | -96.56885 | 34023 ft | 437 kts | 308° |
| 2026-04-15 18:19 | 20.09923 | -96.61977 | 34023 ft | 437 kts | 308° |
| 2026-04-15 18:19 | 20.13676 | -96.67077 | 34018 ft | 437 kts | 308° |
| 2026-04-15 18:20 | 20.17425 | -96.72179 | 34021 ft | 437 kts | 308° |
| 2026-04-15 18:20 | 20.21235 | -96.77165 | 34016 ft | 437 kts | 311° |
| 2026-04-15 18:21 | 20.25393 | -96.81896 | 34023 ft | 437 kts | 314° |
| 2026-04-15 18:21 | 20.29636 | -96.86548 | 34018 ft | 437 kts | 313° |
| 2026-04-15 18:22 | 20.33813 | -96.91260 | 34018 ft | 437 kts | 313° |
| 2026-04-15 18:22 | 20.37944 | -96.96023 | 34020 ft | 437 kts | 312° |
| 2026-04-15 18:23 | 20.42066 | -97.00793 | 34020 ft | 437 kts | 313° |
| 2026-04-15 18:23 | 20.46203 | -97.05551 | 34021 ft | 437 kts | 313° |
| 2026-04-15 18:24 | 20.50346 | -97.10307 | 34019 ft | 437 kts | 313° |
| 2026-04-15 18:24 | 20.54483 | -97.15063 | 34018 ft | 437 kts | 313° |
| 2026-04-15 18:25 | 20.58614 | -97.19827 | 34013 ft | 437 kts | 313° |
| 2026-04-15 18:25 | 20.62721 | -97.24569 | 34020 ft | 437 kts | 313° |
| 2026-04-15 18:26 | 20.66850 | -97.29339 | 34018 ft | 438 kts | 313° |
| 2026-04-15 18:26 | 20.70986 | -97.34111 | 34015 ft | 437 kts | 313° |
| 2026-04-15 18:27 | 20.75117 | -97.38884 | 34021 ft | 437 kts | 313° |
| 2026-04-15 18:27 | 20.79246 | -97.43661 | 34020 ft | 438 kts | 312° |
| 2026-04-15 18:28 | 20.83369 | -97.48446 | 34018 ft | 438 kts | 312° |
| 2026-04-15 18:28 | 20.87498 | -97.53227 | 34015 ft | 437 kts | 312° |
| 2026-04-15 18:29 | 20.91628 | -97.58009 | 34021 ft | 437 kts | 312° |
| 2026-04-15 18:29 | 20.95746 | -97.62792 | 34020 ft | 437 kts | 312° |
| 2026-04-15 18:30 | 20.99864 | -97.67585 | 34023 ft | 437 kts | 312° |
| 2026-04-15 18:30 | 21.03978 | -97.72376 | 34019 ft | 437 kts | 312° |
| 2026-04-15 18:31 | 21.08094 | -97.77170 | 34014 ft | 437 kts | 312° |
| 2026-04-15 18:31 | 21.12214 | -97.81963 | 34017 ft | 437 kts | 312° |
| 2026-04-15 18:32 | 21.16306 | -97.86735 | 34012 ft | 438 kts | 312° |
| 2026-04-15 18:32 | 21.20453 | -97.91582 | 34008 ft | 439 kts | 312° |
| 2026-04-15 18:33 | 21.24552 | -97.96366 | 34009 ft | 439 kts | 312° |
| 2026-04-15 18:33 | 21.28687 | -98.01188 | 34011 ft | 439 kts | 312° |
| 2026-04-15 18:34 | 21.32808 | -98.06007 | 34020 ft | 438 kts | 312° |
| 2026-04-15 18:34 | 21.36922 | -98.10833 | 34022 ft | 438 kts | 312° |
| 2026-04-15 18:35 | 21.41031 | -98.15656 | 34017 ft | 438 kts | 312° |
| 2026-04-15 18:35 | 21.45138 | -98.20479 | 34021 ft | 438 kts | 312° |
| 2026-04-15 18:36 | 21.49246 | -98.25305 | 34015 ft | 438 kts | 312° |
| 2026-04-15 18:36 | 21.53324 | -98.30098 | 34021 ft | 437 kts | 312° |
| 2026-04-15 18:37 | 21.57427 | -98.34932 | 34015 ft | 437 kts | 312° |
| 2026-04-15 18:37 | 21.61523 | -98.39756 | 34017 ft | 437 kts | 312° |
| 2026-04-15 18:38 | 21.65622 | -98.44588 | 34019 ft | 437 kts | 312° |
| 2026-04-15 18:38 | 21.69715 | -98.49417 | 34014 ft | 437 kts | 312° |
| 2026-04-15 18:39 | 21.73810 | -98.54248 | 34023 ft | 437 kts | 312° |
| 2026-04-15 18:39 | 21.77208 | -98.58269 | 34018 ft | 437 kts | 312° |
| 2026-04-15 18:40 | 21.81291 | -98.63108 | 34019 ft | 437 kts | 312° |
| 2026-04-15 18:40 | 21.85384 | -98.67946 | 34020 ft | 437 kts | 312° |
| 2026-04-15 18:41 | 21.89470 | -98.72783 | 34018 ft | 437 kts | 312° |
| 2026-04-15 18:41 | 21.93554 | -98.77631 | 34021 ft | 437 kts | 312° |
| 2026-04-15 18:42 | 21.97633 | -98.82472 | 34020 ft | 437 kts | 312° |
| 2026-04-15 18:42 | 22.01718 | -98.87321 | 34014 ft | 437 kts | 312° |
| 2026-04-15 18:43 | 22.05796 | -98.92173 | 34010 ft | 437 kts | 312° |
| 2026-04-15 18:43 | 22.09878 | -98.97039 | 34010 ft | 438 kts | 312° |
| 2026-04-15 18:44 | 22.13959 | -99.01910 | 34009 ft | 438 kts | 312° |
| 2026-04-15 18:44 | 22.18020 | -99.06745 | 34013 ft | 438 kts | 312° |
| 2026-04-15 18:45 | 22.22134 | -99.11650 | 34013 ft | 438 kts | 312° |
| 2026-04-15 18:45 | 22.26186 | -99.16498 | 34017 ft | 437 kts | 311° |
| 2026-04-15 18:46 | 22.30257 | -99.21377 | 34006 ft | 438 kts | 312° |
| 2026-04-15 18:46 | 22.34341 | -99.26263 | 34010 ft | 438 kts | 312° |
| 2026-04-15 18:47 | 22.38420 | -99.31149 | 34013 ft | 438 kts | 311° |
| 2026-04-15 18:47 | 22.42500 | -99.36050 | 34009 ft | 438 kts | 311° |
| 2026-04-15 18:48 | 22.46589 | -99.40959 | 33996 ft | 440 kts | 311° |
| 2026-04-15 18:48 | 22.50687 | -99.45878 | 33994 ft | 441 kts | 311° |
| 2026-04-15 18:49 | 22.54798 | -99.50816 | 33992 ft | 442 kts | 311° |
| 2026-04-15 18:49 | 22.58909 | -99.55775 | 33983 ft | 444 kts | 311° |
| 2026-04-15 18:50 | 22.63035 | -99.60759 | 33989 ft | 445 kts | 311° |
| 2026-04-15 18:50 | 22.67173 | -99.65747 | 33999 ft | 445 kts | 311° |
| 2026-04-15 18:51 | 22.71311 | -99.70736 | 34012 ft | 445 kts | 311° |
| 2026-04-15 18:51 | 22.75438 | -99.75730 | 34025 ft | 444 kts | 311° |
| 2026-04-15 18:52 | 22.79551 | -99.80718 | 34026 ft | 444 kts | 311° |
| 2026-04-15 18:52 | 22.83631 | -99.85671 | 34017 ft | 443 kts | 311° |
| 2026-04-15 18:53 | 22.87741 | -99.90660 | 34021 ft | 444 kts | 311° |
| 2026-04-15 18:53 | 22.91855 | -99.95648 | 34014 ft | 444 kts | 311° |
| 2026-04-15 18:54 | 22.95971 | -100.00647 | 34017 ft | 444 kts | 311° |
| 2026-04-15 18:54 | 23.00079 | -100.05649 | 34020 ft | 444 kts | 311° |
| 2026-04-15 18:55 | 23.04190 | -100.10644 | 34019 ft | 444 kts | 311° |
| 2026-04-15 18:55 | 23.08300 | -100.15647 | 34014 ft | 444 kts | 311° |
| 2026-04-15 18:56 | 23.12401 | -100.20662 | 34015 ft | 444 kts | 311° |
| 2026-04-15 18:56 | 23.16503 | -100.25677 | 34012 ft | 444 kts | 311° |
| 2026-04-15 18:57 | 23.20609 | -100.30695 | 34007 ft | 444 kts | 311° |
| 2026-04-15 18:57 | 23.24722 | -100.35724 | 34004 ft | 445 kts | 311° |
| 2026-04-15 18:58 | 23.28837 | -100.40765 | 34002 ft | 446 kts | 311° |
| 2026-04-15 18:58 | 23.32958 | -100.45817 | 34001 ft | 446 kts | 311° |
| 2026-04-15 18:59 | 23.37076 | -100.50880 | 33995 ft | 447 kts | 311° |
| 2026-04-15 18:59 | 23.41202 | -100.55948 | 34005 ft | 447 kts | 311° |
| 2026-04-15 19:00 | 23.45302 | -100.60984 | 34017 ft | 446 kts | 311° |
| 2026-04-15 19:00 | 23.49414 | -100.66044 | 34024 ft | 446 kts | 311° |
| 2026-04-15 19:01 | 23.53519 | -100.71114 | 34019 ft | 446 kts | 311° |
| 2026-04-15 19:01 | 23.57620 | -100.76179 | 34018 ft | 446 kts | 311° |
| 2026-04-15 19:02 | 23.61735 | -100.81254 | 34003 ft | 447 kts | 311° |
| 2026-04-15 19:02 | 23.65862 | -100.86344 | 33986 ft | 449 kts | 311° |
| 2026-04-15 19:03 | 23.69996 | -100.91471 | 33990 ft | 451 kts | 311° |
| 2026-04-15 19:03 | 23.74136 | -100.96608 | 34009 ft | 451 kts | 311° |
| 2026-04-15 19:04 | 23.78271 | -101.01740 | 34023 ft | 449 kts | 311° |
| 2026-04-15 19:04 | 23.82397 | -101.06858 | 34027 ft | 448 kts | 311° |
| 2026-04-15 19:05 | 23.86516 | -101.11970 | 34026 ft | 448 kts | 311° |
| 2026-04-15 19:05 | 23.90627 | -101.17085 | 34026 ft | 448 kts | 311° |
| 2026-04-15 19:06 | 23.94705 | -101.22169 | 34025 ft | 448 kts | 311° |
| 2026-04-15 19:06 | 23.98813 | -101.27287 | 34014 ft | 448 kts | 311° |
| 2026-04-15 19:07 | 24.02919 | -101.32402 | 34019 ft | 448 kts | 311° |
| 2026-04-15 19:07 | 24.07022 | -101.37531 | 34021 ft | 448 kts | 311° |
| 2026-04-15 19:08 | 24.11118 | -101.42664 | 34012 ft | 448 kts | 311° |
| 2026-04-15 19:08 | 24.15215 | -101.47794 | 34014 ft | 447 kts | 310° |
| 2026-04-15 19:09 | 24.19151 | -101.53071 | 34015 ft | 447 kts | 307° |
| 2026-04-15 19:09 | 24.22866 | -101.58543 | 34014 ft | 447 kts | 306° |
| 2026-04-15 19:10 | 24.26555 | -101.64030 | 34010 ft | 448 kts | 307° |
| 2026-04-15 19:10 | 24.30309 | -101.69484 | 34008 ft | 448 kts | 307° |
| 2026-04-15 19:11 | 24.34085 | -101.74928 | 34013 ft | 448 kts | 307° |
| 2026-04-15 19:11 | 24.37848 | -101.80371 | 34014 ft | 448 kts | 307° |
| 2026-04-15 19:12 | 24.41606 | -101.85818 | 34015 ft | 448 kts | 307° |
| 2026-04-15 19:12 | 24.45354 | -101.91272 | 34017 ft | 447 kts | 307° |
| 2026-04-15 19:13 | 24.49071 | -101.96691 | 34014 ft | 447 kts | 307° |
| 2026-04-15 19:13 | 24.52841 | -102.02187 | 34012 ft | 448 kts | 307° |
| 2026-04-15 19:14 | 24.56563 | -102.07614 | 34013 ft | 448 kts | 307° |
| 2026-04-15 19:14 | 24.60306 | -102.13081 | 34014 ft | 448 kts | 307° |
| 2026-04-15 19:15 | 24.64044 | -102.18555 | 34010 ft | 448 kts | 307° |
| 2026-04-15 19:15 | 24.67795 | -102.24034 | 34007 ft | 448 kts | 307° |
| 2026-04-15 19:16 | 24.71537 | -102.29510 | 34016 ft | 448 kts | 307° |
| 2026-04-15 19:16 | 24.75268 | -102.34994 | 34021 ft | 447 kts | 307° |
| 2026-04-15 19:17 | 24.78987 | -102.40470 | 34023 ft | 446 kts | 307° |
| 2026-04-15 19:17 | 24.82705 | -102.45938 | 34024 ft | 446 kts | 307° |
| 2026-04-15 19:18 | 24.86427 | -102.51403 | 34017 ft | 446 kts | 307° |
| 2026-04-15 19:18 | 24.91996 | -102.59604 | 34014 ft | 446 kts | 306° |
| 2026-04-15 19:19 | 24.95704 | -102.65077 | 34019 ft | 445 kts | 307° |
| 2026-04-15 19:19 | 24.99407 | -102.70546 | 34023 ft | 445 kts | 306° |
| 2026-04-15 19:20 | 25.03100 | -102.76009 | 34021 ft | 444 kts | 306° |
| 2026-04-15 19:20 | 25.06787 | -102.81475 | 34018 ft | 444 kts | 306° |
| 2026-04-15 19:21 | 25.10478 | -102.86941 | 34018 ft | 444 kts | 306° |
| 2026-04-15 19:21 | 25.14137 | -102.92374 | 34011 ft | 444 kts | 306° |
| 2026-04-15 19:22 | 25.17812 | -102.97851 | 34016 ft | 444 kts | 306° |
| 2026-04-15 19:22 | 25.21490 | -103.03326 | 34013 ft | 444 kts | 306° |
| 2026-04-15 19:23 | 25.25169 | -103.08798 | 34016 ft | 444 kts | 306° |
| 2026-04-15 19:23 | 25.28844 | -103.14272 | 34017 ft | 443 kts | 306° |
| 2026-04-15 19:24 | 25.32510 | -103.19739 | 34022 ft | 442 kts | 306° |
| 2026-04-15 19:24 | 25.36169 | -103.25206 | 34019 ft | 442 kts | 306° |
| 2026-04-15 19:25 | 25.39820 | -103.30671 | 34019 ft | 442 kts | 306° |
| 2026-04-15 19:25 | 25.43469 | -103.36139 | 34019 ft | 442 kts | 306° |
| 2026-04-15 19:26 | 25.47121 | -103.41610 | 34008 ft | 442 kts | 306° |
| 2026-04-15 19:26 | 25.50770 | -103.47093 | 34007 ft | 442 kts | 306° |
| 2026-04-15 19:27 | 25.54395 | -103.52543 | 34007 ft | 442 kts | 306° |
| 2026-04-15 19:27 | 25.58035 | -103.58023 | 34008 ft | 442 kts | 306° |
| 2026-04-15 19:28 | 25.61674 | -103.63514 | 34009 ft | 442 kts | 306° |
| 2026-04-15 19:28 | 25.65314 | -103.69003 | 33999 ft | 443 kts | 306° |
| 2026-04-15 19:29 | 25.68346 | -103.73576 | 33997 ft | 443 kts | 306° |
| 2026-04-15 19:29 | 25.71994 | -103.79083 | 33999 ft | 443 kts | 306° |
| 2026-04-15 19:30 | 25.75636 | -103.84607 | 34003 ft | 443 kts | 306° |
| 2026-04-15 19:30 | 25.79275 | -103.90130 | 34010 ft | 443 kts | 306° |
| 2026-04-15 19:31 | 25.82908 | -103.95646 | 34010 ft | 443 kts | 306° |
| 2026-04-15 19:31 | 25.86550 | -104.01166 | 34006 ft | 443 kts | 306° |
| 2026-04-15 19:32 | 25.90225 | -104.06761 | 34010 ft | 455 kts | 306° |
| 2026-04-15 19:32 | 25.94003 | -104.12517 | 34007 ft | 467 kts | 306° |
| 2026-04-15 19:33 | 25.97851 | -104.18389 | 34009 ft | 471 kts | 306° |
| 2026-04-15 19:33 | 26.01711 | -104.24275 | 34007 ft | 471 kts | 306° |
| 2026-04-15 19:34 | 26.05569 | -104.30171 | 34009 ft | 472 kts | 306° |
| 2026-04-15 19:34 | 26.09401 | -104.36029 | 34007 ft | 472 kts | 306° |
| 2026-04-15 19:35 | 26.13262 | -104.41949 | 34010 ft | 472 kts | 306° |
| 2026-04-15 19:35 | 26.17110 | -104.47869 | 34009 ft | 472 kts | 306° |
| 2026-04-15 19:36 | 26.20961 | -104.53788 | 34014 ft | 472 kts | 306° |
| 2026-04-15 19:36 | 26.24815 | -104.59710 | 34011 ft | 472 kts | 306° |
| 2026-04-15 19:37 | 26.28661 | -104.65635 | 34014 ft | 472 kts | 306° |
| 2026-04-15 19:37 | 26.32507 | -104.71567 | 34013 ft | 472 kts | 306° |
| 2026-04-15 19:38 | 26.36350 | -104.77500 | 34012 ft | 472 kts | 306° |
| 2026-04-15 19:38 | 26.40193 | -104.83439 | 34008 ft | 472 kts | 306° |
| 2026-04-15 19:39 | 26.44031 | -104.89387 | 34013 ft | 472 kts | 306° |
| 2026-04-15 19:39 | 26.47870 | -104.95338 | 34009 ft | 473 kts | 306° |
| 2026-04-15 19:40 | 26.51713 | -105.01294 | 34006 ft | 473 kts | 306° |
| 2026-04-15 19:40 | 26.55531 | -105.07215 | 34007 ft | 473 kts | 306° |
| 2026-04-15 19:41 | 26.59364 | -105.13188 | 34011 ft | 473 kts | 305° |
| 2026-04-15 19:41 | 26.63190 | -105.19174 | 34011 ft | 473 kts | 305° |
| 2026-04-15 19:42 | 26.67011 | -105.25149 | 34010 ft | 473 kts | 305° |
| 2026-04-15 19:42 | 26.70843 | -105.31131 | 34010 ft | 473 kts | 305° |
| 2026-04-15 19:43 | 26.74673 | -105.37115 | 34011 ft | 473 kts | 305° |
| 2026-04-15 19:43 | 26.78476 | -105.43069 | 34014 ft | 473 kts | 305° |
| 2026-04-15 19:44 | 26.82301 | -105.49063 | 34011 ft | 473 kts | 305° |
| 2026-04-15 19:44 | 26.86110 | -105.55067 | 34007 ft | 473 kts | 305° |
| 2026-04-15 19:45 | 26.89923 | -105.61071 | 34006 ft | 473 kts | 305° |
| 2026-04-15 19:45 | 26.93740 | -105.67082 | 34008 ft | 473 kts | 305° |
| 2026-04-15 19:46 | 26.97561 | -105.73096 | 34011 ft | 474 kts | 305° |
| 2026-04-15 19:46 | 27.01378 | -105.79128 | 34003 ft | 474 kts | 305° |
| 2026-04-15 19:47 | 27.05187 | -105.85169 | 34001 ft | 475 kts | 305° |
| 2026-04-15 19:47 | 27.09008 | -105.91220 | 34009 ft | 475 kts | 305° |
| 2026-04-15 19:48 | 27.12829 | -105.97268 | 34014 ft | 474 kts | 305° |
| 2026-04-15 19:48 | 27.16633 | -106.03315 | 34022 ft | 474 kts | 305° |
| 2026-04-15 19:49 | 27.20440 | -106.09374 | 34022 ft | 474 kts | 305° |
| 2026-04-15 19:49 | 27.24248 | -106.15423 | 34020 ft | 475 kts | 305° |
| 2026-04-15 19:50 | 27.28053 | -106.21494 | 34026 ft | 475 kts | 305° |
| 2026-04-15 19:50 | 27.31832 | -106.27525 | 34025 ft | 474 kts | 305° |
| 2026-04-15 19:51 | 27.35619 | -106.33588 | 34029 ft | 474 kts | 305° |
| 2026-04-15 19:51 | 27.39406 | -106.39652 | 34024 ft | 473 kts | 305° |
| 2026-04-15 19:52 | 27.43194 | -106.45714 | 34023 ft | 473 kts | 305° |
| 2026-04-15 19:52 | 27.46971 | -106.51790 | 34017 ft | 474 kts | 304° |
| 2026-04-15 19:53 | 27.50740 | -106.57876 | 34014 ft | 474 kts | 304° |
| 2026-04-15 19:53 | 27.54517 | -106.63966 | 34022 ft | 474 kts | 305° |
| 2026-04-15 19:54 | 27.58301 | -106.70046 | 34019 ft | 474 kts | 305° |
| 2026-04-15 19:54 | 27.62081 | -106.76128 | 34011 ft | 474 kts | 305° |
| 2026-04-15 19:55 | 27.65852 | -106.82231 | 34009 ft | 474 kts | 304° |
| 2026-04-15 19:55 | 27.69621 | -106.88351 | 34003 ft | 475 kts | 304° |
| 2026-04-15 19:56 | 27.73400 | -106.94472 | 33990 ft | 476 kts | 304° |
| 2026-04-15 19:56 | 27.77184 | -107.00609 | 33992 ft | 477 kts | 304° |
| 2026-04-15 19:57 | 27.80964 | -107.06761 | 34004 ft | 477 kts | 304° |
| 2026-04-15 19:57 | 27.84753 | -107.12922 | 34009 ft | 476 kts | 304° |
| 2026-04-15 19:58 | 27.88534 | -107.19073 | 34009 ft | 477 kts | 304° |
| 2026-04-15 19:58 | 27.92297 | -107.25237 | 34009 ft | 477 kts | 304° |
| 2026-04-15 19:59 | 27.96037 | -107.31371 | 33999 ft | 477 kts | 304° |
| 2026-04-15 19:59 | 27.99813 | -107.37551 | 33995 ft | 478 kts | 304° |
| 2026-04-15 20:00 | 28.03595 | -107.43740 | 33999 ft | 479 kts | 304° |
| 2026-04-15 20:00 | 28.07369 | -107.49946 | 34011 ft | 478 kts | 304° |
| 2026-04-15 20:01 | 28.11131 | -107.56152 | 34009 ft | 478 kts | 304° |
| 2026-04-15 20:01 | 28.14901 | -107.62360 | 34008 ft | 478 kts | 304° |
| 2026-04-15 20:02 | 28.18668 | -107.68561 | 33998 ft | 478 kts | 304° |
| 2026-04-15 20:02 | 28.22433 | -107.74778 | 34002 ft | 478 kts | 304° |
| 2026-04-15 20:03 | 28.26188 | -107.81009 | 34010 ft | 478 kts | 304° |
| 2026-04-15 20:03 | 28.29935 | -107.87240 | 34016 ft | 478 kts | 304° |
| 2026-04-15 20:04 | 28.33687 | -107.93457 | 34014 ft | 477 kts | 304° |
| 2026-04-15 20:04 | 28.37437 | -107.99682 | 34016 ft | 477 kts | 304° |
| 2026-04-15 20:05 | 28.41147 | -108.05862 | 34009 ft | 476 kts | 304° |
| 2026-04-15 20:05 | 28.44875 | -108.12081 | 34010 ft | 476 kts | 304° |
| 2026-04-15 20:06 | 28.48600 | -108.18302 | 34016 ft | 476 kts | 304° |
| 2026-04-15 20:06 | 28.52313 | -108.24513 | 34021 ft | 475 kts | 304° |
| 2026-04-15 20:07 | 28.56027 | -108.30724 | 34015 ft | 475 kts | 304° |
| 2026-04-15 20:07 | 28.59737 | -108.36938 | 34015 ft | 474 kts | 304° |
| 2026-04-15 20:08 | 28.63440 | -108.43149 | 34014 ft | 474 kts | 304° |
| 2026-04-15 20:08 | 28.67134 | -108.49376 | 34018 ft | 474 kts | 304° |
| 2026-04-15 20:09 | 28.70811 | -108.55588 | 34016 ft | 473 kts | 304° |
| 2026-04-15 20:09 | 28.74487 | -108.61807 | 34007 ft | 474 kts | 304° |
| 2026-04-15 20:10 | 28.78164 | -108.68036 | 34018 ft | 474 kts | 304° |
| 2026-04-15 20:10 | 28.81841 | -108.74254 | 34032 ft | 472 kts | 304° |
| 2026-04-15 20:11 | 28.85500 | -108.80472 | 34029 ft | 471 kts | 303° |
| 2026-04-15 20:11 | 28.89131 | -108.86695 | 34029 ft | 471 kts | 303° |
| 2026-04-15 20:12 | 28.92768 | -108.92905 | 34020 ft | 470 kts | 303° |
| 2026-04-15 20:12 | 28.96412 | -108.99111 | 34008 ft | 471 kts | 303° |
| 2026-04-15 20:13 | 29.00058 | -109.05331 | 34017 ft | 471 kts | 303° |
| 2026-04-15 20:13 | 29.03659 | -109.11513 | 34021 ft | 470 kts | 303° |
| 2026-04-15 20:14 | 29.07277 | -109.17724 | 34032 ft | 469 kts | 303° |
| 2026-04-15 20:14 | 29.10880 | -109.23911 | 34028 ft | 467 kts | 303° |
| 2026-04-15 20:15 | 29.14472 | -109.30094 | 34025 ft | 466 kts | 303° |
| 2026-04-15 20:15 | 29.18062 | -109.36273 | 34023 ft | 466 kts | 303° |
| 2026-04-15 20:16 | 29.21640 | -109.42451 | 34015 ft | 466 kts | 303° |
| 2026-04-15 20:16 | 29.25226 | -109.48643 | 34006 ft | 467 kts | 303° |
| 2026-04-15 20:17 | 29.28821 | -109.54854 | 34006 ft | 467 kts | 303° |
| 2026-04-15 20:17 | 29.32376 | -109.61025 | 34008 ft | 467 kts | 303° |
| 2026-04-15 20:18 | 29.35962 | -109.67282 | 34017 ft | 466 kts | 303° |
| 2026-04-15 20:18 | 29.39506 | -109.73440 | 34013 ft | 466 kts | 303° |
| 2026-04-15 20:19 | 29.43076 | -109.79645 | 34008 ft | 466 kts | 303° |
| 2026-04-15 20:19 | 29.46642 | -109.85863 | 34010 ft | 467 kts | 303° |
| 2026-04-15 20:20 | 29.49598 | -109.91037 | 34009 ft | 467 kts | 303° |
| 2026-04-15 20:20 | 29.53164 | -109.97272 | 34003 ft | 467 kts | 303° |
| 2026-04-15 20:21 | 29.56727 | -110.03514 | 33997 ft | 468 kts | 303° |
| 2026-04-15 20:21 | 29.60294 | -110.09774 | 34010 ft | 468 kts | 303° |
| 2026-04-15 20:22 | 29.63858 | -110.16031 | 34015 ft | 467 kts | 303° |
| 2026-04-15 20:22 | 29.67408 | -110.22283 | 34015 ft | 467 kts | 303° |
| 2026-04-15 20:23 | 29.70969 | -110.28550 | 34008 ft | 468 kts | 303° |
| 2026-04-15 20:23 | 29.74519 | -110.34820 | 34003 ft | 468 kts | 303° |
| 2026-04-15 20:24 | 29.79776 | -110.44120 | 34008 ft | 468 kts | 303° |
| 2026-04-15 20:25 | 29.83331 | -110.50404 | 34009 ft | 468 kts | 303° |
| 2026-04-15 20:25 | 29.86873 | -110.56686 | 34012 ft | 467 kts | 303° |
| 2026-04-15 20:26 | 29.90977 | -110.63986 | 34013 ft | 466 kts | 303° |
| 2026-04-15 20:26 | 29.93928 | -110.69244 | 34011 ft | 466 kts | 303° |
| 2026-04-15 20:27 | 29.97446 | -110.75533 | 34001 ft | 467 kts | 302° |
| 2026-04-15 20:27 | 30.00945 | -110.81780 | 33995 ft | 467 kts | 303° |
| 2026-04-15 20:28 | 30.04470 | -110.88077 | 33999 ft | 467 kts | 302° |
| 2026-04-15 20:28 | 30.07990 | -110.94378 | 34004 ft | 467 kts | 302° |
| 2026-04-15 20:29 | 30.11498 | -111.00683 | 34007 ft | 466 kts | 302° |
| 2026-04-15 20:29 | 30.15016 | -111.06979 | 34007 ft | 466 kts | 303° |
| 2026-04-15 20:30 | 30.18549 | -111.13265 | 34005 ft | 466 kts | 303° |
| 2026-04-15 20:30 | 30.22080 | -111.19555 | 34009 ft | 466 kts | 303° |
| 2026-04-15 20:31 | 30.25597 | -111.25846 | 34010 ft | 466 kts | 302° |
| 2026-04-15 20:31 | 30.29114 | -111.32154 | 34008 ft | 466 kts | 302° |
| 2026-04-15 20:32 | 30.32631 | -111.38461 | 34005 ft | 466 kts | 302° |
| 2026-04-15 20:32 | 30.36150 | -111.44773 | 34011 ft | 466 kts | 302° |
| 2026-04-15 20:33 | 30.39647 | -111.51096 | 34011 ft | 466 kts | 302° |
| 2026-04-15 20:33 | 30.43118 | -111.57367 | 34015 ft | 466 kts | 302° |
| 2026-04-15 20:34 | 30.46617 | -111.63680 | 34016 ft | 465 kts | 302° |
| 2026-04-15 20:34 | 30.50115 | -111.69997 | 34019 ft | 465 kts | 302° |
| 2026-04-15 20:35 | 30.53602 | -111.76320 | 34021 ft | 465 kts | 302° |
| 2026-04-15 20:35 | 30.57086 | -111.82647 | 34019 ft | 465 kts | 302° |
| 2026-04-15 20:36 | 30.60564 | -111.88971 | 34020 ft | 464 kts | 302° |
| 2026-04-15 20:36 | 30.64032 | -111.95290 | 34016 ft | 464 kts | 302° |
| 2026-04-15 20:37 | 30.67499 | -112.01617 | 34015 ft | 464 kts | 302° |
| 2026-04-15 20:37 | 30.70961 | -112.07945 | 34010 ft | 464 kts | 302° |
| 2026-04-15 20:38 | 30.74394 | -112.14244 | 34015 ft | 464 kts | 302° |
| 2026-04-15 20:38 | 30.77847 | -112.20584 | 34011 ft | 464 kts | 302° |
| 2026-04-15 20:39 | 30.81300 | -112.26923 | 34013 ft | 464 kts | 302° |
| 2026-04-15 20:39 | 30.84751 | -112.33271 | 34016 ft | 464 kts | 302° |
| 2026-04-15 20:40 | 30.88196 | -112.39621 | 34014 ft | 464 kts | 302° |
| 2026-04-15 20:40 | 30.91634 | -112.45971 | 34016 ft | 464 kts | 302° |
| 2026-04-15 20:41 | 30.95068 | -112.52329 | 34012 ft | 464 kts | 302° |
| 2026-04-15 20:41 | 30.98486 | -112.58641 | 34015 ft | 464 kts | 302° |
| 2026-04-15 20:42 | 31.01917 | -112.65002 | 34011 ft | 464 kts | 302° |
| 2026-04-15 20:42 | 31.05345 | -112.71372 | 34014 ft | 464 kts | 302° |
| 2026-04-15 20:43 | 31.08763 | -112.77745 | 34018 ft | 464 kts | 302° |
| 2026-04-15 20:43 | 31.12183 | -112.84120 | 34021 ft | 463 kts | 302° |
| 2026-04-15 20:44 | 31.15609 | -112.90496 | 34019 ft | 464 kts | 302° |
| 2026-04-15 20:44 | 31.19029 | -112.96880 | 34023 ft | 463 kts | 302° |
| 2026-04-15 20:45 | 31.22438 | -113.03268 | 34022 ft | 463 kts | 302° |
| 2026-04-15 20:45 | 31.25843 | -113.09659 | 34020 ft | 463 kts | 302° |
| 2026-04-15 20:46 | 31.29224 | -113.16007 | 34025 ft | 463 kts | 302° |
| 2026-04-15 20:46 | 31.32621 | -113.22396 | 34020 ft | 462 kts | 302° |
| 2026-04-15 20:47 | 31.36034 | -113.28829 | 34018 ft | 462 kts | 302° |
| 2026-04-15 20:47 | 31.39450 | -113.35137 | 34017 ft | 462 kts | 303° |
| 2026-04-15 20:48 | 31.43005 | -113.41393 | 34011 ft | 461 kts | 303° |
| 2026-04-15 20:48 | 31.46537 | -113.47583 | 34002 ft | 464 kts | 303° |
| 2026-04-15 20:49 | 31.50136 | -113.53991 | 34010 ft | 467 kts | 303° |
| 2026-04-15 20:49 | 31.53691 | -113.60366 | 34008 ft | 467 kts | 303° |
| 2026-04-15 20:50 | 31.56926 | -113.66162 | 34005 ft | 467 kts | 303° |
| 2026-04-15 20:50 | 31.60492 | -113.72546 | 34010 ft | 468 kts | 303° |
| 2026-04-15 20:51 | 31.64041 | -113.78937 | 34008 ft | 467 kts | 303° |
| 2026-04-15 20:51 | 31.67587 | -113.85328 | 34008 ft | 467 kts | 303° |
| 2026-04-15 20:52 | 31.71140 | -113.91712 | 34006 ft | 467 kts | 303° |
| 2026-04-15 20:52 | 31.74690 | -113.98098 | 34002 ft | 467 kts | 303° |
| 2026-04-15 20:53 | 31.78222 | -114.04496 | 34004 ft | 467 kts | 303° |
| 2026-04-15 20:53 | 31.81761 | -114.10917 | 34002 ft | 467 kts | 303° |
| 2026-04-15 20:54 | 31.85296 | -114.17331 | 34000 ft | 467 kts | 303° |
| 2026-04-15 20:54 | 31.88832 | -114.23745 | 34001 ft | 467 kts | 303° |
| 2026-04-15 20:55 | 31.92359 | -114.30164 | 34001 ft | 467 kts | 302° |
| 2026-04-15 20:55 | 31.95802 | -114.36452 | 34002 ft | 467 kts | 302° |
| 2026-04-15 20:56 | 31.99307 | -114.42850 | 34003 ft | 467 kts | 303° |
| 2026-04-15 20:56 | 32.02831 | -114.49283 | 34003 ft | 467 kts | 302° |
| 2026-04-15 20:57 | 32.06365 | -114.55767 | 34001 ft | 467 kts | 302° |
| 2026-04-15 20:57 | 32.09859 | -114.62170 | 34001 ft | 467 kts | 302° |
| 2026-04-15 20:58 | 32.13367 | -114.68609 | 33999 ft | 467 kts | 302° |
| 2026-04-15 20:58 | 32.16860 | -114.75062 | 33996 ft | 467 kts | 302° |
| 2026-04-15 20:59 | 32.20354 | -114.81519 | 33995 ft | 467 kts | 302° |
| 2026-04-15 20:59 | 32.23848 | -114.87973 | 33997 ft | 467 kts | 302° |
| 2026-04-15 21:00 | 32.27339 | -114.94439 | 33999 ft | 467 kts | 302° |
| 2026-04-15 21:00 | 32.30831 | -115.00914 | 33996 ft | 467 kts | 302° |
| 2026-04-15 21:01 | 32.34320 | -115.07389 | 33999 ft | 467 kts | 302° |
| 2026-04-15 21:01 | 32.37808 | -115.13875 | 34003 ft | 467 kts | 302° |
| 2026-04-15 21:02 | 32.41290 | -115.20368 | 34004 ft | 467 kts | 302° |
| 2026-04-15 21:02 | 32.44774 | -115.26870 | 34008 ft | 468 kts | 302° |
| 2026-04-15 21:03 | 32.48256 | -115.33372 | 34007 ft | 468 kts | 302° |
| 2026-04-15 21:03 | 32.51741 | -115.39891 | 34011 ft | 468 kts | 302° |
| 2026-04-15 21:04 | 32.55217 | -115.46404 | 34011 ft | 467 kts | 302° |
| 2026-04-15 21:04 | 32.58683 | -115.52919 | 34012 ft | 467 kts | 302° |
| 2026-04-15 21:05 | 32.62145 | -115.59440 | 34010 ft | 467 kts | 302° |
| 2026-04-15 21:05 | 32.65612 | -115.65963 | 34008 ft | 467 kts | 302° |
| 2026-04-15 21:06 | 32.69073 | -115.72503 | 34010 ft | 468 kts | 302° |
| 2026-04-15 21:06 | 32.72526 | -115.79045 | 34008 ft | 468 kts | 302° |
| 2026-04-15 21:07 | 32.75967 | -115.85595 | 34014 ft | 468 kts | 302° |
| 2026-04-15 21:07 | 32.79412 | -115.92151 | 34011 ft | 465 kts | 302° |
| 2026-04-15 21:07 | 32.81096 | -115.95364 | 34003 ft | 449 kts | 301° |
| 2026-04-15 21:08 | 32.82678 | -115.98445 | 33943 ft | 436 kts | 301° |
| 2026-04-15 21:08 | 32.84216 | -116.01505 | 33686 ft | 426 kts | 300° |
| 2026-04-15 21:08 | 32.85709 | -116.04513 | 33435 ft | 419 kts | 300° |
| 2026-04-15 21:08 | 32.87181 | -116.07491 | 33184 ft | 416 kts | 300° |
| 2026-04-15 21:09 | 32.88638 | -116.10438 | 32871 ft | 411 kts | 300° |
| 2026-04-15 21:09 | 32.90087 | -116.13354 | 32384 ft | 408 kts | 300° |
| 2026-04-15 21:09 | 32.91533 | -116.16251 | 31896 ft | 406 kts | 300° |
| 2026-04-15 21:09 | 32.92971 | -116.19127 | 31416 ft | 403 kts | 301° |
| 2026-04-15 21:10 | 32.94398 | -116.21984 | 30937 ft | 400 kts | 300° |
| 2026-04-15 21:10 | 32.95809 | -116.24821 | 30479 ft | 394 kts | 300° |
| 2026-04-15 21:10 | 32.97191 | -116.27597 | 30040 ft | 387 kts | 300° |
| 2026-04-15 21:10 | 32.98555 | -116.30340 | 29604 ft | 384 kts | 300° |
| 2026-04-15 21:11 | 32.99909 | -116.33063 | 29175 ft | 381 kts | 300° |
| 2026-04-15 21:11 | 33.01256 | -116.35772 | 28754 ft | 377 kts | 300° |
| 2026-04-15 21:11 | 33.02586 | -116.38450 | 28349 ft | 374 kts | 300° |
| 2026-04-15 21:11 | 33.03904 | -116.41102 | 27947 ft | 371 kts | 300° |
| 2026-04-15 21:12 | 33.05124 | -116.43792 | 27525 ft | 368 kts | 294° |
| 2026-04-15 21:12 | 33.06158 | -116.46568 | 27101 ft | 365 kts | 294° |
| 2026-04-15 21:12 | 33.07186 | -116.49316 | 26678 ft | 362 kts | 294° |
| 2026-04-15 21:12 | 33.08211 | -116.52050 | 26261 ft | 360 kts | 294° |
| 2026-04-15 21:13 | 33.09227 | -116.54765 | 25838 ft | 358 kts | 294° |
| 2026-04-15 21:13 | 33.10238 | -116.57470 | 25388 ft | 356 kts | 294° |
| 2026-04-15 21:13 | 33.11241 | -116.60160 | 24955 ft | 354 kts | 294° |
| 2026-04-15 21:13 | 33.12241 | -116.62840 | 24504 ft | 353 kts | 294° |
| 2026-04-15 21:14 | 33.13173 | -116.65535 | 24041 ft | 351 kts | 287° |
| 2026-04-15 21:14 | 33.13723 | -116.68371 | 23583 ft | 350 kts | 279° |
| 2026-04-15 21:14 | 33.14139 | -116.71223 | 23131 ft | 349 kts | 279° |
| 2026-04-15 21:14 | 33.14555 | -116.74073 | 22692 ft | 348 kts | 279° |
| 2026-04-15 21:15 | 33.14969 | -116.76906 | 22246 ft | 346 kts | 279° |
| 2026-04-15 21:15 | 33.15242 | -116.78782 | 21956 ft | 346 kts | 279° |
| 2026-04-15 21:15 | 33.15653 | -116.81604 | 21523 ft | 345 kts | 279° |
| 2026-04-15 21:15 | 33.16196 | -116.85325 | 20952 ft | 343 kts | 280° |
| 2026-04-15 21:16 | 33.16605 | -116.88123 | 20524 ft | 342 kts | 279° |
| 2026-04-15 21:16 | 33.17010 | -116.90910 | 20097 ft | 340 kts | 279° |
| 2026-04-15 21:16 | 33.17416 | -116.93686 | 19681 ft | 339 kts | 280° |
| 2026-04-15 21:16 | 33.17823 | -116.96452 | 19263 ft | 337 kts | 280° |
| 2026-04-15 21:17 | 33.18090 | -116.98276 | 18987 ft | 337 kts | 279° |
| 2026-04-15 21:17 | 33.18489 | -117.01036 | 18397 ft | 341 kts | 279° |
| 2026-04-15 21:17 | 33.18894 | -117.03858 | 17966 ft | 340 kts | 279° |
| 2026-04-15 21:17 | 33.19289 | -117.06597 | 17561 ft | 338 kts | 279° |
| 2026-04-15 21:18 | 33.19688 | -117.09355 | 17156 ft | 337 kts | 279° |
| 2026-04-15 21:18 | 33.20085 | -117.12107 | 16750 ft | 335 kts | 279° |
| 2026-04-15 21:18 | 33.20483 | -117.14843 | 16353 ft | 334 kts | 279° |
| 2026-04-15 21:18 | 33.20877 | -117.17572 | 15956 ft | 332 kts | 279° |
| 2026-04-15 21:19 | 33.21267 | -117.20283 | 15567 ft | 331 kts | 279° |
| 2026-04-15 21:19 | 33.21654 | -117.22991 | 15175 ft | 330 kts | 279° |
| 2026-04-15 21:19 | 33.22034 | -117.25679 | 14793 ft | 328 kts | 279° |
| 2026-04-15 21:19 | 33.22414 | -117.28360 | 14404 ft | 326 kts | 279° |
| 2026-04-15 21:20 | 33.22792 | -117.31027 | 14022 ft | 325 kts | 279° |
| 2026-04-15 21:20 | 33.23176 | -117.33672 | 13760 ft | 319 kts | 280° |
| 2026-04-15 21:20 | 33.23571 | -117.36231 | 13684 ft | 309 kts | 281° |
| 2026-04-15 21:20 | 33.23967 | -117.38728 | 13580 ft | 305 kts | 281° |
| 2026-04-15 21:21 | 33.24362 | -117.41214 | 13457 ft | 303 kts | 281° |
| 2026-04-15 21:21 | 33.24751 | -117.43684 | 13345 ft | 302 kts | 281° |
| 2026-04-15 21:21 | 33.25140 | -117.46153 | 13231 ft | 302 kts | 281° |
| 2026-04-15 21:21 | 33.25526 | -117.48613 | 13114 ft | 301 kts | 280° |
| 2026-04-15 21:22 | 33.25908 | -117.51074 | 13001 ft | 301 kts | 281° |
| 2026-04-15 21:22 | 33.26494 | -117.53461 | 12882 ft | 300 kts | 293° |
| 2026-04-15 21:22 | 33.27512 | -117.55634 | 12691 ft | 299 kts | 303° |
| 2026-04-15 21:22 | 33.28649 | -117.57720 | 12496 ft | 299 kts | 302° |
| 2026-04-15 21:23 | 33.29771 | -117.59803 | 12305 ft | 298 kts | 302° |
| 2026-04-15 21:23 | 33.30888 | -117.61884 | 12120 ft | 297 kts | 302° |
| 2026-04-15 21:23 | 33.32001 | -117.63959 | 11935 ft | 296 kts | 302° |
| 2026-04-15 21:23 | 33.33113 | -117.66031 | 11746 ft | 295 kts | 302° |
| 2026-04-15 21:24 | 33.34206 | -117.68070 | 11567 ft | 295 kts | 302° |
| 2026-04-15 21:24 | 33.35311 | -117.70129 | 11378 ft | 294 kts | 302° |
| 2026-04-15 21:24 | 33.36411 | -117.72180 | 11194 ft | 293 kts | 302° |
| 2026-04-15 21:24 | 33.37512 | -117.74229 | 11006 ft | 292 kts | 302° |
| 2026-04-15 21:25 | 33.38607 | -117.76269 | 10825 ft | 291 kts | 302° |
| 2026-04-15 21:25 | 33.39700 | -117.78311 | 10634 ft | 290 kts | 302° |
| 2026-04-15 21:25 | 33.40788 | -117.80345 | 10460 ft | 290 kts | 302° |
| 2026-04-15 21:25 | 33.41872 | -117.82376 | 10273 ft | 289 kts | 302° |
| 2026-04-15 21:26 | 33.42955 | -117.84399 | 10096 ft | 288 kts | 302° |
| 2026-04-15 21:26 | 33.44035 | -117.86417 | 9910 ft | 287 kts | 302° |
| 2026-04-15 21:26 | 33.45110 | -117.88428 | 9736 ft | 287 kts | 302° |
| 2026-04-15 21:26 | 33.46182 | -117.90435 | 9554 ft | 286 kts | 302° |
| 2026-04-15 21:27 | 33.47409 | -117.92305 | 9378 ft | 285 kts | 316° |
| 2026-04-15 21:27 | 33.48993 | -117.93719 | 9193 ft | 284 kts | 331° |
| 2026-04-15 21:27 | 33.50815 | -117.94623 | 9014 ft | 284 kts | 340° |
| 2026-04-15 21:27 | 33.52680 | -117.95418 | 8825 ft | 284 kts | 340° |
| 2026-04-15 21:28 | 33.54535 | -117.96217 | 8654 ft | 283 kts | 340° |
| 2026-04-15 21:28 | 33.56381 | -117.97018 | 8470 ft | 282 kts | 340° |
| 2026-04-15 21:28 | 33.58223 | -117.97821 | 8297 ft | 281 kts | 340° |
| 2026-04-15 21:28 | 33.60061 | -117.98623 | 8120 ft | 281 kts | 340° |
| 2026-04-15 21:29 | 33.61894 | -117.99423 | 7831 ft | 278 kts | 339° |
| 2026-04-15 21:29 | 33.63718 | -118.00180 | 7493 ft | 275 kts | 342° |
| 2026-04-15 21:29 | 33.65521 | -118.00856 | 7333 ft | 277 kts | 342° |
| 2026-04-15 21:29 | 33.67366 | -118.01518 | 7106 ft | 276 kts | 343° |
| 2026-04-15 21:30 | 33.69204 | -118.02170 | 6758 ft | 274 kts | 343° |
| 2026-04-15 21:30 | 33.71026 | -118.02819 | 6382 ft | 273 kts | 343° |
| 2026-04-15 21:30 | 33.72816 | -118.03416 | 6247 ft | 261 kts | 344° |
| 2026-04-15 21:30 | 33.74522 | -118.04007 | 6116 ft | 250 kts | 342° |
| 2026-04-15 21:31 | 33.77743 | -118.05300 | 5554 ft | 242 kts | 340° |
| 2026-04-15 21:31 | 33.79317 | -118.06001 | 5216 ft | 241 kts | 339° |
| 2026-04-15 21:32 | 33.82392 | -118.07431 | 4688 ft | 233 kts | 338° |
| 2026-04-15 21:32 | 33.83882 | -118.08139 | 4475 ft | 228 kts | 338° |
| 2026-04-15 21:32 | 33.85355 | -118.08843 | 4268 ft | 226 kts | 338° |
| 2026-04-15 21:32 | 33.86801 | -118.09576 | 4078 ft | 225 kts | 330° |
| 2026-04-15 21:33 | 33.88157 | -118.10517 | 3874 ft | 224 kts | 329° |
| 2026-04-15 21:33 | 33.89485 | -118.11473 | 3673 ft | 220 kts | 328° |
| 2026-04-15 21:33 | 33.90784 | -118.12419 | 3472 ft | 216 kts | 328° |
| 2026-04-15 21:33 | 33.92060 | -118.13352 | 3268 ft | 213 kts | 328° |
| 2026-04-15 21:34 | 33.93322 | -118.14274 | 3067 ft | 211 kts | 328° |
| 2026-04-15 21:34 | 33.94505 | -118.15286 | 2870 ft | 207 kts | 314° |
| 2026-04-15 21:34 | 33.95325 | -118.16685 | 2674 ft | 205 kts | 293° |
| 2026-04-15 21:34 | 33.95677 | -118.18309 | 2496 ft | 197 kts | 274° |
| 2026-04-15 21:35 | 33.95592 | -118.19916 | 2304 ft | 189 kts | 263° |
| 2026-04-15 21:35 | 33.95436 | -118.21455 | 2089 ft | 182 kts | 263° |
| 2026-04-15 21:35 | 33.95286 | -118.22947 | 1901 ft | 176 kts | 263° |
| 2026-04-15 21:35 | 33.95144 | -118.24364 | 1815 ft | 165 kts | 263° |
| 2026-04-15 21:36 | 33.95012 | -118.25673 | 1808 ft | 150 kts | 263° |
| 2026-04-15 21:36 | 33.94884 | -118.26941 | 1829 ft | 163 kts | 263° |
| 2026-04-15 21:36 | 33.94742 | -118.28345 | 1721 ft | 167 kts | 263° |
| 2026-04-15 21:36 | 33.94606 | -118.29689 | 1512 ft | 157 kts | 263° |
| 2026-04-15 21:37 | 33.94477 | -118.30968 | 1317 ft | 151 kts | 263° |
| 2026-04-15 21:37 | 33.94352 | -118.32205 | 1121 ft | 146 kts | 263° |
| 2026-04-15 21:37 | 33.94230 | -118.33406 | 937 ft | 145 kts | 263° |
| 2026-04-15 21:37 | 33.94107 | -118.34621 | 746 ft | 147 kts | 263° |
| 2026-04-15 21:38 | 33.93982 | -118.35847 | 557 ft | 148 kts | 263° |
| 2026-04-15 21:38 | 33.93857 | -118.37076 | 355 ft | 149 kts | 263° |
| 2026-04-15 21:38 | 33.93730 | -118.38327 | 156 ft | 151 kts | 263° |
| 2026-04-15 21:38 | 33.93612 | -118.39485 | 94 ft | 120 kts | 263° |
| 2026-04-15 21:39 | 33.93535 | -118.40258 | 94 ft | 58 kts | 264° |
| 2026-04-15 21:39 | 33.93546 | -118.40480 | 95 ft | 7 kts | 282° |
| 2026-04-15 21:39 | 33.93545 | -118.40470 | 95 ft | 2 kts | 282° |
| 2026-04-15 21:39 | 33.93557 | -118.40528 | 96 ft | 10 kts | 285° |
| 2026-04-15 21:40 | 33.93574 | -118.40588 | 95 ft | 7 kts | 291° |
| 2026-04-15 21:40 | 33.93590 | -118.40639 | 94 ft | 7 kts | 290° |
| 2026-04-15 21:40 | 33.93594 | -118.40734 | 94 ft | 16 kts | 270° |
| 2026-04-15 21:40 | 33.93613 | -118.40853 | 96 ft | 16 kts | 308° |
| 2026-04-15 21:41 | 33.93715 | -118.40904 | 96 ft | 17 kts | 355° |
| 2026-04-15 21:41 | 33.93762 | -118.40909 | 95 ft | 5 kts | 354° |
| 2026-04-15 21:41 | 33.93819 | -118.40917 | 94 ft | 11 kts | 353° |
| 2026-04-15 21:41 | 33.93875 | -118.40857 | 93 ft | 14 kts | 72° |
| 2026-04-15 21:42 | 33.93956 | -118.40822 | 94 ft | 16 kts | 352° |
| 2026-04-15 21:42 | 33.94076 | -118.40831 | 93 ft | 18 kts | 353° |
| 2026-04-15 21:42 | 33.94198 | -118.40853 | 93 ft | 13 kts | 340° |
| 2026-04-15 21:42 | 33.94215 | -118.40903 | 94 ft | 6 kts | 252° |
| 2026-04-15 21:43 | 33.94210 | -118.40938 | 93 ft | 0 kts | 262° |
| 2026-04-15 21:43 | 33.94210 | -118.40937 | 94 ft | 1 kts | 262° |
| 2026-04-15 21:43 | 33.94211 | -118.40932 | 94 ft | 0 kts | 262° |